Time;durP1;ratioP1;P1;durP2;ratioP2;P2;SDS_P1;SDS_P2;PMS_P1;PMS_P2;Temp;Humidity;BMP_temperature;BMP_pressure;BME280_temperature;BME280_humidity;BME280_pressure;Samples;Min_cycle;Max_cycle;Signal;HPM_P1;HPM_P2
2021/08/11 00:01:09;;;;;;;8.75;6.47;;;;;;;14.92;100.00;96976.94;5040928;28;20087;-66
2021/08/11 00:03:35;;;;;;;9.30;5.68;;;;;;;14.97;100.00;96978.56;5045854;28;20033;-67
2021/08/11 00:06:00;;;;;;;10.00;5.70;;;;;;;14.97;100.00;96973.03;5038160;28;20056;-69
2021/08/11 00:08:26;;;;;;;9.70;5.63;;;;;;;15.01;100.00;96976.59;5050099;28;20048;-66
2021/08/11 00:10:51;;;;;;;13.32;6.75;;;;;;;15.06;100.00;96973.47;5044386;28;20080;-66
2021/08/11 00:13:16;;;;;;;9.18;5.05;;;;;;;15.10;100.00;96972.28;5036830;28;20489;-70
2021/08/11 00:15:42;;;;;;;9.07;5.18;;;;;;;15.19;100.00;96974.66;5030061;28;20501;-67
2021/08/11 00:18:07;;;;;;;9.55;5.28;;;;;;;15.32;100.00;96974.31;5039816;28;20133;-67
2021/08/11 00:20:35;;;;;;;7.22;4.28;;;;;;;15.40;100.00;96973.94;5045575;28;20049;-65
2021/08/11 00:23:00;;;;;;;7.30;4.25;;;;;;;15.53;100.00;96968.81;5045753;28;20036;-69
2021/08/11 00:25:26;;;;;;;8.32;4.20;;;;;;;15.65;100.00;96970.41;5034457;28;20041;-66
2021/08/11 00:27:51;;;;;;;5.75;3.67;;;;;;;15.79;100.00;96975.97;5045873;28;20510;-65
2021/08/11 00:30:16;;;;;;;6.82;4.28;;;;;;;15.87;100.00;96974.00;5040805;28;20045;-67
2021/08/11 00:32:42;;;;;;;9.90;4.10;;;;;;;15.92;100.00;96979.13;5045404;28;20076;-67
2021/08/11 00:35:07;;;;;;;9.55;4.10;;;;;;;15.92;100.00;96972.81;5041543;28;20132;-68
2021/08/11 00:37:33;;;;;;;7.57;3.97;;;;;;;15.80;100.00;96972.03;5045899;28;20045;-66
2021/08/11 00:39:59;;;;;;;7.82;3.67;;;;;;;15.73;100.00;96968.44;5044190;28;20048;-67
2021/08/11 00:42:26;;;;;;;8.93;3.90;;;;;;;15.70;100.00;96969.22;5041343;28;20064;-67
2021/08/11 00:44:51;;;;;;;6.32;3.97;;;;;;;15.81;100.00;96962.56;5045758;28;20040;-66
2021/08/11 00:47:18;;;;;;;7.50;3.55;;;;;;;15.86;100.00;96975.97;5036508;28;20132;-67
2021/08/11 00:49:44;;;;;;;5.97;3.92;;;;;;;15.85;100.00;96971.63;5035471;28;20094;-66
2021/08/11 00:52:09;;;;;;;7.88;4.30;;;;;;;15.89;100.00;96970.84;5037987;28;20041;-67
2021/08/11 00:54:36;;;;;;;9.02;4.30;;;;;;;15.90;100.00;96969.66;5044259;28;20051;-67
2021/08/11 00:57:04;;;;;;;7.80;4.32;;;;;;;15.90;100.00;96967.69;5044814;28;20055;-73
2021/08/11 00:59:35;;;;;;;7.75;3.95;;;;;;;15.89;100.00;96968.09;5025181;28;20453;-68
2021/08/11 01:02:02;;;;;;;5.75;3.70;;;;;;;15.88;100.00;96972.81;5044752;28;20059;-66
2021/08/11 01:04:29;;;;;;;10.23;4.15;;;;;;;15.71;100.00;96968.84;5039638;28;20045;-67
2021/08/11 01:06:56;;;;;;;5.25;3.63;;;;;;;15.52;100.00;96972.78;5020064;28;20045;-67
2021/08/11 01:09:22;;;;;;;7.10;4.15;;;;;;;15.46;100.00;96972.34;5034819;28;20200;-67
2021/08/11 01:11:50;;;;;;;8.30;5.00;;;;;;;15.21;100.00;96971.53;5039929;28;20037;-67
2021/08/11 01:14:16;;;;;;;11.43;4.70;;;;;;;14.91;100.00;96978.16;5035438;28;20190;-68
2021/08/11 01:16:42;;;;;;;7.90;4.68;;;;;;;14.75;100.00;96983.19;5041356;28;20529;-67
2021/08/11 01:19:07;;;;;;;9.07;5.35;;;;;;;14.67;100.00;96985.13;5033043;28;20386;-66
2021/08/11 01:21:51;;;;;;;7.47;4.80;;;;;;;14.75;100.00;96984.00;5043620;28;20051;-66
2021/08/11 01:24:35;;;;;;;11.55;5.20;;;;;;;14.78;100.00;96982.41;5027038;28;20083;-67
2021/08/11 01:27:17;;;;;;;8.73;5.22;;;;;;;14.70;100.00;96976.88;5038708;28;20044;-68
2021/08/11 01:29:45;;;;;;;6.70;4.40;;;;;;;14.84;100.00;96978.13;5029844;28;20449;-67
2021/08/11 01:32:22;;;;;;;7.53;4.60;;;;;;;14.99;100.00;96976.19;5030404;28;20041;-67
2021/08/11 01:34:51;;;;;;;8.93;4.15;;;;;;;15.14;100.00;96982.53;5043259;28;20401;-68
2021/08/11 01:37:23;;;;;;;10.45;4.60;;;;;;;14.98;100.00;96980.13;5028119;28;20040;-69
2021/08/11 01:39:53;;;;;;;11.65;4.60;;;;;;;14.82;100.00;96972.19;5042218;28;20073;-69
2021/08/11 01:42:25;;;;;;;7.40;4.85;;;;;;;14.91;100.00;96975.38;5034014;28;20041;-68
2021/08/11 01:44:56;;;;;;;9.25;3.85;;;;;;;15.01;100.00;96966.34;5036707;28;20071;-66
2021/08/11 01:47:31;;;;;;;11.10;4.43;;;;;;;14.99;100.00;96968.69;5036491;28;20049;-68
2021/08/11 01:49:58;;;;;;;7.40;4.75;;;;;;;14.90;100.00;96963.53;5039158;28;20075;-67
2021/08/11 01:52:25;;;;;;;8.32;4.80;;;;;;;14.80;100.00;96964.31;5028184;28;20451;-69
2021/08/11 01:54:51;;;;;;;8.88;4.78;;;;;;;14.70;100.00;96962.28;5041260;28;20041;-64
2021/08/11 01:57:17;;;;;;;7.03;4.78;;;;;;;14.68;100.00;96961.91;5033708;28;20358;-65
2021/08/11 01:59:45;;;;;;;7.80;4.95;;;;;;;14.67;100.00;96958.34;5038802;28;20043;-66
2021/08/11 02:02:13;;;;;;;11.68;4.85;;;;;;;14.68;100.00;96967.41;5028174;28;20452;-66
2021/08/11 02:04:40;;;;;;;11.23;4.80;;;;;;;14.62;100.00;96960.66;5035101;28;20049;-65
2021/08/11 02:07:05;;;;;;;8.23;4.50;;;;;;;14.64;100.00;96974.84;5020364;28;20041;-67
2021/08/11 02:09:31;;;;;;;10.80;4.43;;;;;;;14.78;100.00;96969.41;5041401;28;20078;-66
2021/08/11 02:11:57;;;;;;;7.70;4.40;;;;;;;14.90;100.00;96969.06;5040692;28;20044;-64
2021/08/11 02:14:24;;;;;;;6.40;3.90;;;;;;;14.98;100.00;96958.06;5025773;28;20036;-66
2021/08/11 02:16:49;;;;;;;7.22;4.20;;;;;;;15.02;100.00;96965.19;5024710;28;20045;-67
2021/08/11 02:19:15;;;;;;;7.15;4.28;;;;;;;14.99;100.00;96963.19;5027836;28;20045;-66
2021/08/11 02:21:41;;;;;;;6.78;4.38;;;;;;;14.93;100.00;96962.00;5038020;28;20080;-66
2021/08/11 02:24:09;;;;;;;7.47;3.92;;;;;;;14.97;100.00;96959.25;5034347;28;20043;-66
2021/08/11 02:26:45;;;;;;;7.93;4.10;;;;;;;14.99;100.00;96960.44;5036103;28;20047;-66
2021/08/11 02:29:13;;;;;;;5.57;3.70;;;;;;;14.91;100.00;96959.63;5032025;28;20063;-68
2021/08/11 02:32:09;;;;;;;7.80;4.18;;;;;;;14.91;100.00;96956.88;5041010;28;20109;-68
2021/08/11 02:35:01;;;;;;;6.90;4.25;;;;;;;15.00;100.00;96962.03;5040385;28;20132;-66
2021/08/11 02:37:45;;;;;;;11.98;5.75;;;;;;;15.13;100.00;96958.91;5035057;28;20689;-66
2021/08/11 02:40:30;;;;;;;7.38;3.67;;;;;;;15.09;100.00;96956.91;5019848;28;20068;-66
2021/08/11 02:43:12;;;;;;;9.43;3.70;;;;;;;14.94;100.00;96952.53;5037984;28;20498;-66
2021/08/11 02:45:40;;;;;;;5.47;3.58;;;;;;;14.76;100.00;96951.69;5038058;28;20122;-67
2021/08/11 02:48:09;;;;;;;10.48;4.43;;;;;;;14.49;100.00;96957.44;5027194;28;20052;-66
2021/08/11 02:50:35;;;;;;;8.20;4.10;;;;;;;14.39;100.00;96956.22;5037063;28;20064;-65
2021/08/11 02:53:02;;;;;;;8.45;4.38;;;;;;;14.31;100.00;96957.34;5040307;28;20048;-66
2021/08/11 02:55:27;;;;;;;9.43;4.30;;;;;;;14.36;100.00;96953.44;5030991;28;20041;-64
2021/08/11 02:57:54;;;;;;;8.50;3.55;;;;;;;14.44;100.00;96949.53;5034465;28;20037;-66
2021/08/11 03:00:20;;;;;;;5.93;3.95;;;;;;;14.49;100.00;96951.91;5029827;28;20041;-67
2021/08/11 03:02:46;;;;;;;5.60;3.80;;;;;;;14.47;100.00;96948.78;5028124;28;20037;-66
2021/08/11 03:05:13;;;;;;;6.15;3.58;;;;;;;14.35;100.00;96952.66;5031242;28;20091;-67
2021/08/11 03:07:39;;;;;;;10.68;3.92;;;;;;;14.43;100.00;96951.50;5030028;28;20413;-65
2021/08/11 03:10:06;;;;;;;9.52;3.72;;;;;;;14.58;100.00;96952.38;5028107;28;20588;-68
2021/08/11 03:12:32;;;;;;;13.05;4.03;;;;;;;14.62;100.00;96958.72;5038763;28;20532;-67
2021/08/11 03:14:58;;;;;;;5.93;3.45;;;;;;;14.64;100.00;96952.81;5039660;28;20044;-68
2021/08/11 03:17:24;;;;;;;9.20;3.50;;;;;;;14.62;100.00;96949.66;5025279;28;20037;-66
2021/08/11 03:19:50;;;;;;;8.43;3.72;;;;;;;14.61;100.00;96948.09;5037864;28;20477;-66
2021/08/11 03:22:15;;;;;;;5.00;3.53;;;;;;;14.72;100.00;96946.94;5025538;28;20045;-66
2021/08/11 03:24:41;;;;;;;8.02;3.95;;;;;;;14.70;100.00;96943.00;5030472;28;20040;-66
2021/08/11 03:27:06;;;;;;;8.27;3.80;;;;;;;14.64;100.00;96945.34;5031261;28;20405;-65
2021/08/11 03:29:32;;;;;;;7.07;3.85;;;;;;;14.70;100.00;96945.75;5037191;28;20099;-67
2021/08/11 03:31:57;;;;;;;12.15;4.68;;;;;;;14.83;100.00;96941.47;5033410;28;20044;-64
2021/08/11 03:34:23;;;;;;;6.28;4.05;;;;;;;14.71;100.00;96947.31;5036994;28;20546;-64
2021/08/11 03:36:48;;;;;;;6.97;3.50;;;;;;;14.65;100.00;96946.91;5039755;28;20049;-65
2021/08/11 03:39:14;;;;;;;7.15;4.00;;;;;;;14.71;100.00;96941.81;5032729;28;20486;-68
2021/08/11 03:41:39;;;;;;;12.95;3.92;;;;;;;14.71;100.00;96933.53;5032578;28;20056;-66
2021/08/11 03:44:05;;;;;;;6.45;3.42;;;;;;;14.69;100.00;96939.47;5034556;28;20065;-68
2021/08/11 03:46:31;;;;;;;7.53;4.28;;;;;;;14.68;100.00;96935.13;5032333;28;20044;-67
2021/08/11 03:48:56;;;;;;;7.85;4.13;;;;;;;14.69;100.00;96944.97;5039268;28;20040;-66
2021/08/11 03:51:22;;;;;;;7.95;4.18;;;;;;;14.69;100.00;96944.16;5034716;28;20238;-66
2021/08/11 03:53:47;;;;;;;7.65;4.43;;;;;;;14.76;100.00;96948.94;5031816;28;20126;-66
2021/08/11 03:56:14;;;;;;;11.27;3.80;;;;;;;14.75;100.00;96950.09;5032638;28;20045;-66
2021/08/11 03:58:39;;;;;;;7.25;4.10;;;;;;;14.79;100.00;96945.41;5030687;28;20401;-66
2021/08/11 04:01:06;;;;;;;7.22;4.57;;;;;;;14.78;100.00;96947.34;5024930;28;20041;-69
2021/08/11 04:03:31;;;;;;;9.77;4.25;;;;;;;14.51;100.00;96947.63;5007013;28;20046;-66
2021/08/11 04:05:57;;;;;;;6.78;4.43;;;;;;;14.34;100.00;96942.81;5027296;28;20409;-66
2021/08/11 04:08:22;;;;;;;11.98;4.45;;;;;;;14.28;100.00;96938.84;5029583;28;20416;-66
2021/08/11 04:10:48;;;;;;;5.72;4.28;;;;;;;14.39;100.00;96947.94;5024683;28;20056;-64
2021/08/11 04:13:15;;;;;;;10.60;4.63;;;;;;;14.47;100.00;96955.06;5024600;28;20533;-67
2021/08/11 04:15:42;;;;;;;10.60;4.88;;;;;;;14.52;100.00;96953.91;5039132;28;20091;-66
2021/08/11 04:18:09;;;;;;;8.50;4.22;;;;;;;14.61;100.00;96959.13;5034759;28;20048;-66
2021/08/11 04:20:35;;;;;;;7.38;3.95;;;;;;;14.63;100.00;96962.25;5030781;28;20078;-66
2021/08/11 04:23:00;;;;;;;10.65;4.47;;;;;;;14.64;100.00;96952.81;5039139;28;20041;-66
2021/08/11 04:25:26;;;;;;;6.38;4.03;;;;;;;14.66;100.00;96956.78;5033023;28;20060;-67
2021/08/11 04:27:52;;;;;;;6.63;4.00;;;;;;;14.70;100.00;96962.28;5038785;28;20045;-66
2021/08/11 04:30:17;;;;;;;8.48;4.22;;;;;;;14.71;100.00;96974.88;5031614;28;20045;-67
2021/08/11 04:32:43;;;;;;;9.30;4.35;;;;;;;14.71;100.00;96978.47;5033401;28;20122;-66
2021/08/11 04:35:09;;;;;;;7.90;4.05;;;;;;;14.64;100.00;96983.94;5018923;28;20536;-65
2021/08/11 04:37:36;;;;;;;8.32;3.90;;;;;;;14.60;100.00;96980.34;5011883;28;20049;-66
2021/08/11 04:40:06;;;;;;;7.45;4.10;;;;;;;14.43;100.00;96976.31;5036775;28;20094;-66
2021/08/11 04:42:32;;;;;;;9.57;4.85;;;;;;;14.33;100.00;96975.09;5041616;28;20041;-63
2021/08/11 04:44:58;;;;;;;7.82;4.78;;;;;;;14.35;100.00;96971.94;5039402;28;20702;-65
2021/08/11 04:47:23;;;;;;;9.90;5.55;;;;;;;14.27;100.00;96984.09;5029978;28;20049;-64
2021/08/11 04:49:50;;;;;;;8.85;4.50;;;;;;;13.95;100.00;96979.13;5043374;28;20041;-65
2021/08/11 04:52:16;;;;;;;7.78;4.75;;;;;;;13.59;100.00;96984.34;5033274;28;20797;-64
2021/08/11 04:54:41;;;;;;;8.40;5.25;;;;;;;13.33;100.00;96982.53;5034620;28;20040;-65
2021/08/11 04:57:07;;;;;;;17.38;5.50;;;;;;;13.46;100.00;96983.06;5035449;28;20037;-68
2021/08/11 04:59:32;;;;;;;6.50;4.90;;;;;;;13.60;100.00;96985.16;5037872;28;20044;-67
2021/08/11 05:01:57;;;;;;;13.02;5.85;;;;;;;13.72;100.00;96979.34;5037959;28;20132;-66
2021/08/11 05:04:23;;;;;;;9.55;5.70;;;;;;;14.02;100.00;96995.72;5030503;28;20475;-65
2021/08/11 05:06:48;;;;;;;11.77;5.47;;;;;;;14.64;100.00;96978.41;5041250;28;20413;-65
2021/08/11 05:09:14;;;;;;;8.55;4.35;;;;;;;15.16;100.00;96986.50;5035630;28;20676;-66
2021/08/11 05:11:41;;;;;;;9.55;4.82;;;;;;;15.88;100.00;96985.81;5031829;28;20044;-65
2021/08/11 05:14:06;;;;;;;10.90;4.10;;;;;;;16.99;94.83;96982.84;5028879;28;20126;-65
2021/08/11 05:16:31;;;;;;;8.02;3.70;;;;;;;18.17;86.83;96989.63;5032174;28;20742;-64
2021/08/11 05:18:57;;;;;;;9.13;3.38;;;;;;;19.20;79.27;96988.91;5042382;28;20041;-66
2021/08/11 05:21:24;;;;;;;7.60;3.40;;;;;;;20.08;74.98;96982.47;5035504;28;20623;-65
2021/08/11 05:23:49;;;;;;;7.85;3.17;;;;;;;21.02;70.70;96980.75;5038599;28;20036;-64
2021/08/11 05:26:15;;;;;;;5.68;3.25;;;;;;;22.15;65.43;96968.22;5036688;28;20049;-66
2021/08/11 05:28:40;;;;;;;4.82;2.40;;;;;;;23.19;61.67;96964.66;5041914;28;20037;-65
2021/08/11 05:31:06;;;;;;;8.38;2.83;;;;;;;23.93;57.69;96965.59;5042362;28;20124;-66
2021/08/11 05:33:31;;;;;;;5.30;2.95;;;;;;;24.46;55.85;96961.44;5035008;28;20069;-65
2021/08/11 05:35:57;;;;;;;8.20;2.90;;;;;;;25.02;54.13;96983.06;5039192;28;20137;-64
2021/08/11 05:38:22;;;;;;;6.97;2.95;;;;;;;25.51;51.84;96982.44;5036528;28;20040;-64
2021/08/11 05:40:48;;;;;;;5.13;2.83;;;;;;;25.84;51.76;96986.78;5041800;28;20044;-66
2021/08/11 05:43:15;;;;;;;6.38;3.20;;;;;;;26.26;50.38;96989.13;5020256;28;20037;-67
2021/08/11 05:45:40;;;;;;;7.75;3.15;;;;;;;26.58;48.76;96990.56;5021581;28;20048;-67
2021/08/11 05:48:06;;;;;;;6.63;3.20;;;;;;;25.74;51.03;97000.00;5033224;28;20045;-66
2021/08/11 05:50:32;;;;;;;7.85;3.25;;;;;;;25.76;50.98;97001.09;5047462;28;20130;-67
2021/08/11 05:52:57;;;;;;;10.98;3.40;;;;;;;24.76;53.44;97002.81;5040506;28;20155;-66
2021/08/11 05:55:22;;;;;;;5.15;3.03;;;;;;;23.09;59.86;97014.03;5024339;28;20781;-66
2021/08/11 05:57:48;;;;;;;6.75;3.33;;;;;;;23.46;59.68;97013.75;5036903;28;20073;-67
2021/08/11 06:00:16;;;;;;;8.98;3.58;;;;;;;23.60;58.50;97004.16;5034057;28;20037;-66
2021/08/11 06:02:42;;;;;;;6.63;3.50;;;;;;;22.19;63.42;97012.00;5039381;28;20124;-66
2021/08/11 06:05:09;;;;;;;6.32;3.45;;;;;;;21.21;67.51;97013.38;5019630;28;20041;-68
2021/08/11 06:07:35;;;;;;;10.48;3.50;;;;;;;20.69;69.67;97017.59;5021740;28;20123;-66
2021/08/11 06:10:01;;;;;;;6.53;3.60;;;;;;;20.18;72.73;97019.63;5033117;28;20137;-65
2021/08/11 06:12:26;;;;;;;12.10;3.80;;;;;;;19.98;75.87;97019.56;5034654;28;20064;-64
2021/08/11 06:14:52;;;;;;;8.55;3.33;;;;;;;22.15;67.00;97015.66;5041244;28;20047;-64
2021/08/11 06:17:17;;;;;;;7.03;2.95;;;;;;;23.84;60.33;97013.03;5032258;28;20524;-67
2021/08/11 06:19:43;;;;;;;8.00;3.28;;;;;;;23.83;59.72;97009.44;5032061;28;20045;-67
2021/08/11 06:22:09;;;;;;;7.47;3.25;;;;;;;24.16;58.84;97012.00;5033261;28;20041;-65
2021/08/11 06:24:35;;;;;;;6.85;3.60;;;;;;;25.24;55.33;97022.31;5033008;28;20132;-66
2021/08/11 06:27:01;;;;;;;6.63;3.53;;;;;;;26.12;52.11;97027.75;5033861;28;20080;-66
2021/08/11 06:29:26;;;;;;;21.75;4.05;;;;;;;26.15;51.98;97031.69;5036243;28;20045;-67
2021/08/11 06:31:51;;;;;;;9.38;3.15;;;;;;;25.34;53.58;97028.78;5040438;28;20045;-64
2021/08/11 06:34:17;;;;;;;8.52;3.78;;;;;;;25.18;54.78;97026.94;5036004;28;20113;-63
2021/08/11 06:36:43;;;;;;;11.02;3.38;;;;;;;24.82;55.74;97033.03;5022987;28;20517;-64
2021/08/11 06:39:09;;;;;;;7.18;3.28;;;;;;;24.80;57.14;97028.66;5026785;28;20045;-64
2021/08/11 06:41:34;;;;;;;8.88;3.38;;;;;;;24.34;58.01;97019.78;5034896;28;20125;-65
2021/08/11 06:44:00;;;;;;;5.97;3.30;;;;;;;23.87;59.13;97030.94;5036239;28;20048;-64
2021/08/11 06:46:25;;;;;;;6.95;3.88;;;;;;;23.56;60.68;97028.66;5026784;28;20624;-64
2021/08/11 06:48:53;;;;;;;8.02;3.40;;;;;;;23.16;62.20;97027.00;5033853;28;20045;-64
2021/08/11 06:51:19;;;;;;;9.68;3.55;;;;;;;23.65;61.02;97037.94;5032550;28;20044;-64
2021/08/11 06:53:44;;;;;;;7.35;3.40;;;;;;;25.22;56.83;97040.81;5039450;28;20052;-64
2021/08/11 06:56:09;;;;;;;9.75;3.75;;;;;;;25.85;53.36;97041.66;5028927;28;20044;-66
2021/08/11 06:58:36;;;;;;;6.85;3.50;;;;;;;26.95;50.27;97041.19;5040276;28;20041;-66
2021/08/11 07:01:03;;;;;;;5.30;3.15;;;;;;;28.44;46.06;97038.78;5033956;28;20041;-66
2021/08/11 07:03:29;;;;;;;4.20;2.72;;;;;;;28.49;45.15;97027.63;5013176;28;20060;-66
2021/08/11 07:05:54;;;;;;;9.18;3.70;;;;;;;28.26;45.83;97028.38;5023652;28;20422;-65
2021/08/11 07:08:23;;;;;;;6.03;3.30;;;;;;;28.86;45.06;97035.81;5034927;28;20525;-64
2021/08/11 07:10:49;;;;;;;7.18;2.92;;;;;;;28.85;44.98;97041.97;5040366;28;20531;-65
2021/08/11 07:13:19;;;;;;;7.85;3.53;;;;;;;29.16;43.81;97041.56;5026514;28;20045;-65
2021/08/11 07:15:45;;;;;;;6.68;3.17;;;;;;;26.72;48.94;97038.97;5039364;28;20040;-66
2021/08/11 07:18:15;;;;;;;7.43;3.65;;;;;;;23.88;58.33;97032.50;5035227;28;20048;-65
2021/08/11 07:20:41;;;;;;;6.43;4.00;;;;;;;24.45;58.15;97027.84;5041246;28;20045;-65
2021/08/11 07:23:06;;;;;;;6.68;3.28;;;;;;;26.19;52.90;97025.91;5032130;28;20033;-66
2021/08/11 07:25:32;;;;;;;6.55;3.70;;;;;;;24.78;54.70;97019.94;5053351;28;20072;-66
2021/08/11 07:27:57;;;;;;;6.80;3.85;;;;;;;23.80;58.16;97015.94;5059798;28;20044;-65
2021/08/11 07:30:23;;;;;;;6.50;3.60;;;;;;;25.37;53.97;97028.66;5054200;28;20177;-65
2021/08/11 07:32:48;;;;;;;6.95;3.60;;;;;;;26.32;51.44;97020.94;5045533;28;20045;-65
2021/08/11 07:35:14;;;;;;;6.22;4.07;;;;;;;23.30;58.16;97028.63;5032671;28;20044;-67
2021/08/11 07:37:46;;;;;;;9.80;3.75;;;;;;;24.05;58.68;97025.56;5038362;28;20039;-67
2021/08/11 07:40:13;;;;;;;8.13;3.40;;;;;;;26.25;52.18;97032.47;5034532;28;20068;-68
2021/08/11 07:42:40;;;;;;;6.50;3.42;;;;;;;27.97;48.24;97024.16;5039008;28;20037;-68
2021/08/11 07:45:05;;;;;;;8.93;3.53;;;;;;;29.59;43.31;97024.38;5000592;28;20047;-65
2021/08/11 07:47:31;;;;;;;6.57;3.35;;;;;;;29.83;42.64;97024.28;5039750;28;20041;-67
2021/08/11 07:49:56;;;;;;;11.65;3.63;;;;;;;30.75;40.46;97028.69;5039710;28;20045;-66
2021/08/11 07:52:22;;;;;;;6.38;3.35;;;;;;;28.75;45.61;97025.09;5033701;28;20075;-65
2021/08/11 07:54:47;;;;;;;6.97;3.35;;;;;;;29.44;44.78;97028.00;5039332;28;20090;-66
2021/08/11 07:57:12;;;;;;;5.93;3.67;;;;;;;29.58;42.71;97031.28;5034435;28;20144;-65
2021/08/11 07:59:38;;;;;;;6.00;3.42;;;;;;;29.61;42.59;97025.44;5036971;28;20033;-65
2021/08/11 08:02:08;;;;;;;6.57;3.22;;;;;;;30.29;42.42;97027.31;5018012;28;20044;-64
2021/08/11 08:04:34;;;;;;;5.28;3.35;;;;;;;30.76;40.87;97023.84;5038022;28;20040;-65
2021/08/11 08:06:59;;;;;;;5.88;3.60;;;;;;;31.02;39.89;97026.72;5040188;28;20051;-65
2021/08/11 08:09:24;;;;;;;6.47;3.70;;;;;;;30.08;41.36;97028.53;5038932;28;20366;-66
2021/08/11 08:11:50;;;;;;;6.53;3.72;;;;;;;29.95;42.02;97030.91;5056665;28;20426;-65
2021/08/11 08:14:15;;;;;;;9.20;3.50;;;;;;;29.27;43.60;97032.53;5042133;28;20107;-66
2021/08/11 08:16:41;;;;;;;6.95;3.58;;;;;;;30.01;41.85;97032.53;5042683;28;20045;-65
2021/08/11 08:19:06;;;;;;;6.07;3.45;;;;;;;30.38;42.25;97028.47;5038560;28;20033;-66
2021/08/11 08:21:31;;;;;;;13.73;3.75;;;;;;;30.34;41.23;97033.53;5042535;28;20430;-66
2021/08/11 08:23:57;;;;;;;7.15;3.53;;;;;;;30.40;41.87;97031.59;5043305;28;20051;-67
2021/08/11 08:26:22;;;;;;;5.68;3.42;;;;;;;30.54;41.49;97029.97;5039247;28;20048;-65
2021/08/11 08:28:48;;;;;;;7.40;3.72;;;;;;;29.71;43.23;97026.91;5043913;28;20421;-66
2021/08/11 08:31:15;;;;;;;9.02;3.90;;;;;;;28.80;44.83;97026.50;5020988;28;20045;-66
2021/08/11 08:33:40;;;;;;;6.05;3.25;;;;;;;28.97;45.42;97024.00;5042067;28;20104;-67
2021/08/11 08:36:06;;;;;;;7.30;3.22;;;;;;;29.31;45.14;97019.00;5036807;28;20492;-67
2021/08/11 08:38:31;;;;;;;6.32;3.80;;;;;;;29.25;44.75;97020.97;5040846;28;20045;-67
2021/08/11 08:40:58;;;;;;;6.32;3.38;;;;;;;28.86;45.53;97016.09;5039942;28;20048;-67
2021/08/11 08:43:23;;;;;;;7.35;3.80;;;;;;;29.56;44.33;97017.66;5036813;28;20073;-66
2021/08/11 08:45:49;;;;;;;7.68;3.20;;;;;;;31.76;39.12;97016.91;5040418;28;20068;-66
2021/08/11 08:48:15;;;;;;;7.60;3.65;;;;;;;32.87;36.63;97023.81;5036338;28;20045;-66
2021/08/11 08:50:41;;;;;;;5.30;3.30;;;;;;;33.03;35.54;97030.06;5039995;28;20494;-66
2021/08/11 08:53:09;;;;;;;5.20;3.45;;;;;;;32.83;35.82;97026.13;5037719;28;20037;-65
2021/08/11 08:55:35;;;;;;;6.07;3.00;;;;;;;33.26;33.11;97022.38;5041595;28;20098;-66
2021/08/11 08:58:04;;;;;;;4.63;2.78;;;;;;;33.48;33.08;97027.34;5038802;28;20064;-66
2021/08/11 09:00:35;;;;;;;;;;;;;;;31.05;37.16;97035.00;5041970;28;20048;-66
2021/08/11 09:03:00;;;;;;;5.13;3.10;;;;;;;29.33;41.87;97031.38;5043118;28;20058;-66
2021/08/11 09:05:26;;;;;;;5.32;3.05;;;;;;;30.27;39.92;97035.50;5036010;28;20138;-67
2021/08/11 09:07:52;;;;;;;6.38;2.97;;;;;;;31.98;37.33;97028.44;5041985;28;20077;-66
2021/08/11 09:10:26;;;;;;;4.78;2.75;;;;;;;33.13;33.98;97035.03;5037633;28;20123;-66
2021/08/11 09:13:06;;;;;;;8.55;2.88;;;;;;;32.12;35.74;97031.63;5023505;28;20417;-66
2021/08/11 09:15:37;;;;;;;8.52;3.03;;;;;;;32.79;35.36;97030.47;5039873;28;20706;-66
2021/08/11 09:18:17;;;;;;;8.98;2.78;;;;;;;32.87;34.47;97032.31;5039138;28;20052;-64
2021/08/11 09:21:09;;;;;;;5.65;3.17;;;;;;;31.28;38.43;97035.25;5041081;28;20045;-65
2021/08/11 09:23:46;;;;;;;5.90;2.63;;;;;;;30.71;39.78;97039.44;5030830;28;20493;-66
2021/08/11 09:26:14;;;;;;;8.27;3.70;;;;;;;30.10;42.30;97034.47;5035833;28;20049;-66
2021/08/11 09:28:42;;;;;;;6.75;3.10;;;;;;;30.30;41.25;97028.84;5040020;28;20036;-67
2021/08/11 09:31:21;;;;;;;7.45;3.28;;;;;;;28.89;44.56;97032.03;5035587;28;20079;-64
2021/08/11 09:33:51;;;;;;;5.63;3.63;;;;;;;29.93;42.20;97032.16;5040505;28;20513;-66
2021/08/11 09:36:18;;;;;;;7.25;3.63;;;;;;;30.15;42.84;97024.53;5036763;28;20131;-65
2021/08/11 09:39:12;;;;;;;7.18;3.38;;;;;;;29.99;42.45;97018.13;5041036;28;20041;-66
2021/08/11 09:41:58;;;;;;;6.43;3.00;;;;;;;30.00;41.72;97027.38;5023721;28;20044;-66
2021/08/11 09:44:24;;;;;;;9.23;3.50;;;;;;;30.54;41.01;97025.09;5032822;28;20048;-66
2021/08/11 09:46:49;;;;;;;6.68;4.00;;;;;;;30.02;41.56;97017.16;5041065;28;20109;-66
2021/08/11 09:49:20;;;;;;;7.55;3.88;;;;;;;29.78;42.02;97020.09;5034528;28;20042;-66
2021/08/11 09:51:55;;;;;;;10.50;4.35;;;;;;;29.80;42.15;97016.78;5040547;28;20086;-66
2021/08/11 09:54:21;;;;;;;8.07;4.50;;;;;;;28.53;46.06;97013.34;5034275;28;20041;-66
2021/08/11 09:56:47;;;;;;;4.32;3.03;;;;;;;29.04;45.27;97014.38;5040588;28;20053;-65
2021/08/11 09:59:12;;;;;;;7.30;3.40;;;;;;;29.79;43.60;97013.19;5033428;28;20045;-65
2021/08/11 10:01:38;;;;;;;9.20;4.07;;;;;;;29.41;43.95;97009.19;5039485;28;20452;-66
2021/08/11 10:04:06;;;;;;;9.73;4.18;;;;;;;29.77;43.40;97012.91;5037210;28;20041;-64
2021/08/11 10:06:32;;;;;;;8.90;3.38;;;;;;;30.13;43.46;97013.72;5040104;28;20602;-66
2021/08/11 10:09:11;;;;;;;10.43;3.70;;;;;;;31.11;39.66;97018.06;5038480;28;20500;-67
2021/08/11 10:11:38;;;;;;;5.28;3.65;;;;;;;31.55;38.62;97019.06;5036537;28;20037;-66
2021/08/11 10:14:07;;;;;;;5.75;3.63;;;;;;;31.29;38.66;97019.03;5037368;28;20454;-65
2021/08/11 10:16:34;;;;;;;5.50;3.13;;;;;;;31.04;39.61;97013.66;5040312;28;20447;-65
2021/08/11 10:19:03;;;;;;;7.88;3.20;;;;;;;29.39;43.25;97014.56;5040487;28;20383;-65
2021/08/11 10:21:31;;;;;;;6.67;3.10;;;;;;;29.44;42.84;97013.88;5037588;28;20072;-65
2021/08/11 10:23:58;;;;;;;5.90;3.22;;;;;;;29.10;43.84;97016.06;5040570;28;20037;-66
2021/08/11 10:26:24;;;;;;;4.45;2.70;;;;;;;30.16;42.17;97012.75;5034902;28;20036;-66
2021/08/11 10:28:51;;;;;;;5.85;2.58;;;;;;;31.32;38.60;97016.00;5040755;28;20040;-66
2021/08/11 10:31:17;;;;;;;5.93;3.10;;;;;;;32.57;36.01;97012.06;5034261;28;20064;-67
2021/08/11 10:33:47;;;;;;;6.45;2.72;;;;;;;31.79;37.92;97019.53;5039716;28;20049;-66
2021/08/11 10:36:14;;;;;;;4.82;2.83;;;;;;;31.98;37.69;97013.47;5032742;28;20524;-66
2021/08/11 10:38:42;;;;;;;6.80;2.90;;;;;;;30.98;39.84;97020.53;5038649;28;20448;-66
2021/08/11 10:41:08;;;;;;;7.43;2.97;;;;;;;30.44;40.10;97021.63;5034229;28;20072;-65
2021/08/11 10:43:34;;;;;;;5.45;3.10;;;;;;;29.80;43.39;97019.59;5038907;28;20520;-65
2021/08/11 10:46:04;;;;;;;5.50;3.10;;;;;;;30.69;39.64;97016.56;5039208;28;20037;-66
2021/08/11 10:48:30;;;;;;;6.25;2.65;;;;;;;30.25;42.67;97017.47;5039817;28;20044;-66
2021/08/11 10:50:57;;;;;;;6.32;2.80;;;;;;;30.42;41.16;97018.50;5040998;28;20041;-65
2021/08/11 10:53:23;;;;;;;9.77;3.28;;;;;;;30.53;41.13;97017.88;5034601;28;20606;-65
2021/08/11 10:55:50;;;;;;;8.73;3.30;;;;;;;30.33;42.31;97026.31;5039749;28;20077;-66
2021/08/11 10:58:34;;;;;;;4.03;2.70;;;;;;;30.36;41.08;97020.50;5032985;28;20048;-66
2021/08/11 11:00:59;;;;;;;6.72;3.13;;;;;;;30.31;40.50;97015.50;5039739;28;20103;-65
2021/08/11 11:03:47;;;;;;;5.43;3.00;;;;;;;30.36;41.43;97008.41;5034288;28;20080;-64
2021/08/11 11:06:12;;;;;;;5.35;2.97;;;;;;;30.15;42.09;97005.53;5034465;28;20405;-66
2021/08/11 11:08:38;;;;;;;6.40;3.13;;;;;;;30.22;40.47;97010.75;5040355;28;20037;-67
2021/08/11 11:11:37;;;;;;;8.27;3.20;;;;;;;30.17;40.48;97002.97;5036894;28;20156;-66
2021/08/11 11:14:03;;;;;;;5.43;3.22;;;;;;;30.30;40.32;97000.59;4992376;28;20049;-66
2021/08/11 11:16:59;;;;;;;5.40;3.40;;;;;;;29.66;43.05;96996.53;5041540;28;20075;-65
2021/08/11 11:19:25;;;;;;;5.75;3.00;;;;;;;29.49;43.93;96993.44;5038859;28;20032;-64
2021/08/11 11:21:50;;;;;;;4.80;2.85;;;;;;;29.63;43.82;96994.69;5040264;28;20119;-66
2021/08/11 11:24:48;;;;;;;5.40;3.53;;;;;;;29.35;44.71;96988.56;5029986;28;20051;-67
2021/08/11 11:27:41;;;;;;;5.15;3.28;;;;;;;29.19;44.54;96992.66;5018161;28;20037;-64
2021/08/11 11:30:30;;;;;;;12.48;3.90;;;;;;;28.69;46.61;96995.28;5034746;28;20072;-68
2021/08/11 11:33:18;;;;;;;11.73;3.60;;;;;;;28.95;47.07;96990.63;5033170;28;20045;-64